PGT1Z LTFJ-EDDK
Flight info
| Callsign | PGT1Z |
|---|---|
| Flight time | 2h 57m |
| Altitude | 36000 |
| Route | VADEN N618 BAKLO DCT XANEX DCT GOGAR DCT UTEKA DCT TONDO DCT GITAS DCT BEGLA DCT DITIS DCT RAPET T843 VELIS DCT FUL DCT GISEM DCT GULKO |
| Aircraft | A320/M-SDE3FGHIRWY/LB1 |
Departure
| Time | 2026-04-22 17:25 |
|---|---|
| Airport | Istanbul Sabiha Gökçen International Airport (LTFJ) |
Arrival
| Time | 2026-04-22 20:23 |
|---|---|
| Airport | Cologne Bonn Airport (EDDK) |
| Time | Latitude | Longitude | Altitude | Speed | Heading |
|---|---|---|---|---|---|
| 2026-04-22 16:50 | 40.90541 | 29.31452 | 318 ft | 0 kts | 335° |
| 2026-04-22 17:14 | 40.90533 | 29.31457 | 319 ft | 4 kts | 335° |
| 2026-04-22 17:14 | 40.90509 | 29.31472 | 321 ft | 4 kts | 333° |
| 2026-04-22 17:14 | 40.90486 | 29.31490 | 320 ft | 4 kts | 314° |
| 2026-04-22 17:14 | 40.90477 | 29.31511 | 319 ft | 2 kts | 246° |
| 2026-04-22 17:15 | 40.90477 | 29.31513 | 319 ft | 0 kts | 245° |
| 2026-04-22 17:17 | 40.90472 | 29.31499 | 318 ft | 6 kts | 245° |
| 2026-04-22 17:18 | 40.90456 | 29.31454 | 321 ft | 5 kts | 245° |
| 2026-04-22 17:18 | 40.90437 | 29.31436 | 321 ft | 3 kts | 192° |
| 2026-04-22 17:18 | 40.90401 | 29.31445 | 321 ft | 6 kts | 158° |
| 2026-04-22 17:18 | 40.90364 | 29.31468 | 321 ft | 6 kts | 154° |
| 2026-04-22 17:19 | 40.90279 | 29.31490 | 321 ft | 6 kts | 212° |
| 2026-04-22 17:19 | 40.90220 | 29.31340 | 320 ft | 11 kts | 244° |
| 2026-04-22 17:20 | 40.90146 | 29.31139 | 321 ft | 11 kts | 244° |
| 2026-04-22 17:20 | 40.90073 | 29.30940 | 321 ft | 17 kts | 244° |
| 2026-04-22 17:21 | 40.90015 | 29.30783 | 321 ft | 19 kts | 244° |
| 2026-04-22 17:21 | 40.89910 | 29.30498 | 320 ft | 17 kts | 244° |
| 2026-04-22 17:22 | 40.89813 | 29.30233 | 320 ft | 18 kts | 244° |
| 2026-04-22 17:22 | 40.89755 | 29.30076 | 321 ft | 19 kts | 244° |
| 2026-04-22 17:22 | 40.89648 | 29.29784 | 319 ft | 18 kts | 244° |
| 2026-04-22 17:23 | 40.89596 | 29.29643 | 320 ft | 16 kts | 244° |
| 2026-04-22 17:23 | 40.89494 | 29.29366 | 321 ft | 15 kts | 244° |
| 2026-04-22 17:23 | 40.89437 | 29.29260 | 320 ft | 13 kts | 209° |
| 2026-04-22 17:24 | 40.89355 | 29.29276 | 320 ft | 12 kts | 155° |
| 2026-04-22 17:24 | 40.89302 | 29.29330 | 320 ft | 7 kts | 122° |
| 2026-04-22 17:24 | 40.89300 | 29.29408 | 320 ft | 10 kts | 70° |
| 2026-04-22 17:24 | 40.89343 | 29.29529 | 322 ft | 31 kts | 64° |
| 2026-04-22 17:25 | 40.89544 | 29.30077 | 321 ft | 98 kts | 64° |
| 2026-04-22 17:25 | 40.89919 | 29.31090 | 322 ft | 148 kts | 64° |
| 2026-04-22 17:25 | 40.90382 | 29.32346 | 835 ft | 154 kts | 64° |
| 2026-04-22 17:25 | 40.90865 | 29.33633 | 1501 ft | 158 kts | 64° |
| 2026-04-22 17:26 | 40.91363 | 29.34946 | 2186 ft | 160 kts | 64° |
| 2026-04-22 17:26 | 40.91865 | 29.36282 | 2677 ft | 169 kts | 65° |
| 2026-04-22 17:26 | 40.92408 | 29.37774 | 2870 ft | 190 kts | 65° |
| 2026-04-22 17:26 | 40.93012 | 29.39444 | 3080 ft | 213 kts | 65° |
| 2026-04-22 17:27 | 40.93678 | 29.41279 | 3400 ft | 234 kts | 64° |
| 2026-04-22 17:27 | 40.94402 | 29.43261 | 4006 ft | 245 kts | 64° |
| 2026-04-22 17:27 | 40.95163 | 29.45336 | 4696 ft | 253 kts | 64° |
| 2026-04-22 17:27 | 40.95937 | 29.47454 | 5472 ft | 258 kts | 64° |
| 2026-04-22 17:28 | 40.96723 | 29.49613 | 6224 ft | 263 kts | 63° |
| 2026-04-22 17:28 | 40.97526 | 29.51817 | 6940 ft | 268 kts | 61° |
| 2026-04-22 17:28 | 40.98338 | 29.54042 | 7601 ft | 275 kts | 62° |
| 2026-04-22 17:28 | 40.99185 | 29.56362 | 8226 ft | 283 kts | 62° |
| 2026-04-22 17:29 | 41.00101 | 29.58700 | 8901 ft | 288 kts | 52° |
| 2026-04-22 17:29 | 41.01562 | 29.60471 | 9610 ft | 285 kts | 24° |
| 2026-04-22 17:29 | 41.03450 | 29.61170 | 10295 ft | 282 kts | 357° |
| 2026-04-22 17:29 | 41.05384 | 29.60774 | 10728 ft | 290 kts | 342° |
| 2026-04-22 17:30 | 41.07401 | 29.60025 | 10895 ft | 312 kts | 340° |
| 2026-04-22 17:30 | 41.09542 | 29.59188 | 11278 ft | 325 kts | 340° |
| 2026-04-22 17:30 | 41.11698 | 29.58340 | 11898 ft | 329 kts | 340° |
| 2026-04-22 17:30 | 41.13910 | 29.57481 | 12564 ft | 332 kts | 340° |
| 2026-04-22 17:31 | 41.16145 | 29.56626 | 13221 ft | 335 kts | 340° |
| 2026-04-22 17:31 | 41.18396 | 29.55774 | 13881 ft | 337 kts | 339° |
| 2026-04-22 17:31 | 41.20669 | 29.54914 | 14456 ft | 341 kts | 339° |
| 2026-04-22 17:31 | 41.22962 | 29.54045 | 15030 ft | 344 kts | 338° |
| 2026-04-22 17:32 | 41.25258 | 29.53227 | 15588 ft | 348 kts | 340° |
| 2026-04-22 17:32 | 41.27632 | 29.52507 | 16169 ft | 351 kts | 341° |
| 2026-04-22 17:32 | 41.30042 | 29.51846 | 16736 ft | 355 kts | 341° |
| 2026-04-22 17:32 | 41.32476 | 29.51205 | 17295 ft | 358 kts | 340° |
| 2026-04-22 17:33 | 41.34099 | 29.50777 | 17673 ft | 359 kts | 340° |
| 2026-04-22 17:33 | 41.37400 | 29.49890 | 18373 ft | 363 kts | 338° |
| 2026-04-22 17:33 | 41.39769 | 29.48958 | 18805 ft | 355 kts | 327° |
| 2026-04-22 17:33 | 41.41838 | 29.47292 | 19233 ft | 342 kts | 311° |
| 2026-04-22 17:34 | 41.43385 | 29.44951 | 19660 ft | 333 kts | 295° |
| 2026-04-22 17:34 | 41.44284 | 29.42154 | 20062 ft | 327 kts | 280° |
| 2026-04-22 17:34 | 41.44800 | 29.39186 | 20500 ft | 329 kts | 279° |
| 2026-04-22 17:34 | 41.45313 | 29.36196 | 20935 ft | 331 kts | 279° |
| 2026-04-22 17:35 | 41.45831 | 29.33189 | 21399 ft | 333 kts | 279° |
| 2026-04-22 17:35 | 41.46346 | 29.30209 | 21834 ft | 335 kts | 279° |
| 2026-04-22 17:35 | 41.46872 | 29.27163 | 22276 ft | 338 kts | 279° |
| 2026-04-22 17:35 | 41.47403 | 29.24092 | 22671 ft | 341 kts | 279° |
| 2026-04-22 17:36 | 41.47937 | 29.20997 | 23083 ft | 343 kts | 279° |
| 2026-04-22 17:36 | 41.48473 | 29.17876 | 23490 ft | 346 kts | 279° |
| 2026-04-22 17:36 | 41.49009 | 29.14735 | 23857 ft | 348 kts | 279° |
| 2026-04-22 17:36 | 41.49540 | 29.11621 | 24215 ft | 349 kts | 279° |
| 2026-04-22 17:37 | 41.50082 | 29.08457 | 24581 ft | 350 kts | 279° |
| 2026-04-22 17:37 | 41.50627 | 29.05279 | 24959 ft | 351 kts | 279° |
| 2026-04-22 17:37 | 41.51172 | 29.02102 | 25315 ft | 352 kts | 279° |
| 2026-04-22 17:37 | 41.51719 | 28.98907 | 25664 ft | 353 kts | 279° |
| 2026-04-22 17:38 | 41.52264 | 28.95703 | 26006 ft | 354 kts | 279° |
| 2026-04-22 17:38 | 41.52811 | 28.92482 | 26322 ft | 357 kts | 279° |
| 2026-04-22 17:38 | 41.53361 | 28.89237 | 26608 ft | 359 kts | 279° |
| 2026-04-22 17:38 | 41.53913 | 28.85971 | 26924 ft | 361 kts | 279° |
| 2026-04-22 17:39 | 41.54457 | 28.82734 | 27245 ft | 362 kts | 279° |
| 2026-04-22 17:39 | 41.55006 | 28.79451 | 27584 ft | 363 kts | 279° |
| 2026-04-22 17:39 | 41.56112 | 28.72828 | 28204 ft | 366 kts | 279° |
| 2026-04-22 17:40 | 41.56669 | 28.69501 | 28524 ft | 367 kts | 279° |
| 2026-04-22 17:40 | 41.57228 | 28.66166 | 28814 ft | 368 kts | 279° |
| 2026-04-22 17:40 | 41.57789 | 28.62815 | 29106 ft | 370 kts | 279° |
| 2026-04-22 17:40 | 41.58343 | 28.59490 | 29370 ft | 372 kts | 280° |
| 2026-04-22 17:41 | 41.58905 | 28.56102 | 29608 ft | 374 kts | 280° |
| 2026-04-22 17:41 | 41.59471 | 28.52696 | 29863 ft | 376 kts | 280° |
| 2026-04-22 17:41 | 41.60038 | 28.49278 | 30120 ft | 377 kts | 280° |
| 2026-04-22 17:41 | 41.60603 | 28.45857 | 30343 ft | 378 kts | 280° |
| 2026-04-22 17:42 | 41.61168 | 28.42413 | 30592 ft | 378 kts | 280° |
| 2026-04-22 17:42 | 41.61733 | 28.38974 | 30914 ft | 377 kts | 280° |
| 2026-04-22 17:42 | 41.62105 | 28.36711 | 31129 ft | 376 kts | 280° |
| 2026-04-22 17:42 | 41.62847 | 28.32192 | 31558 ft | 374 kts | 280° |
| 2026-04-22 17:43 | 41.63405 | 28.28799 | 31898 ft | 372 kts | 280° |
| 2026-04-22 17:43 | 41.63956 | 28.25423 | 32203 ft | 371 kts | 280° |
| 2026-04-22 17:43 | 41.64507 | 28.22050 | 32501 ft | 370 kts | 280° |
| 2026-04-22 17:43 | 41.65054 | 28.18683 | 32798 ft | 369 kts | 280° |
| 2026-04-22 17:44 | 41.65599 | 28.15324 | 33086 ft | 368 kts | 279° |
| 2026-04-22 17:44 | 41.66139 | 28.11974 | 33376 ft | 368 kts | 279° |
| 2026-04-22 17:44 | 41.66679 | 28.08629 | 33665 ft | 367 kts | 279° |
| 2026-04-22 17:44 | 41.67235 | 28.05340 | 33952 ft | 367 kts | 283° |
| 2026-04-22 17:45 | 41.68145 | 28.02137 | 34204 ft | 372 kts | 291° |
| 2026-04-22 17:45 | 41.69479 | 27.99135 | 34384 ft | 377 kts | 297° |
| 2026-04-22 17:45 | 41.70913 | 27.96182 | 34540 ft | 378 kts | 297° |
| 2026-04-22 17:45 | 41.72355 | 27.93217 | 34698 ft | 380 kts | 297° |
| 2026-04-22 17:46 | 41.73777 | 27.90289 | 34849 ft | 381 kts | 297° |
| 2026-04-22 17:46 | 41.75221 | 27.87308 | 35001 ft | 382 kts | 297° |
| 2026-04-22 17:46 | 41.76665 | 27.84320 | 35131 ft | 383 kts | 297° |
| 2026-04-22 17:46 | 41.78115 | 27.81314 | 35279 ft | 384 kts | 297° |
| 2026-04-22 17:47 | 41.79563 | 27.78301 | 35429 ft | 385 kts | 297° |
| 2026-04-22 17:47 | 41.81016 | 27.75276 | 35561 ft | 386 kts | 297° |
| 2026-04-22 17:47 | 41.82471 | 27.72241 | 35701 ft | 387 kts | 298° |
| 2026-04-22 17:47 | 41.83931 | 27.69193 | 35829 ft | 388 kts | 298° |
| 2026-04-22 17:48 | 41.84900 | 27.67171 | 35898 ft | 389 kts | 298° |
| 2026-04-22 17:48 | 41.86848 | 27.63108 | 36063 ft | 391 kts | 298° |
| 2026-04-22 17:48 | 41.88322 | 27.60024 | 36076 ft | 392 kts | 298° |
| 2026-04-22 17:49 | 41.91275 | 27.53838 | 36088 ft | 393 kts | 298° |
| 2026-04-22 17:49 | 41.94222 | 27.47650 | 36087 ft | 393 kts | 298° |
| 2026-04-22 17:50 | 41.97162 | 27.41458 | 36075 ft | 397 kts | 298° |
| 2026-04-22 17:50 | 42.00138 | 27.35174 | 36092 ft | 398 kts | 298° |
| 2026-04-22 17:51 | 42.03125 | 27.28885 | 36080 ft | 398 kts | 298° |
| 2026-04-22 17:51 | 42.06113 | 27.22590 | 36075 ft | 399 kts | 301° |
| 2026-04-22 17:52 | 42.09713 | 27.16882 | 36072 ft | 403 kts | 308° |
| 2026-04-22 17:52 | 42.13472 | 27.11240 | 36057 ft | 404 kts | 308° |
| 2026-04-22 17:53 | 42.17231 | 27.05584 | 36058 ft | 405 kts | 308° |
| 2026-04-22 17:53 | 42.20968 | 26.99951 | 36056 ft | 405 kts | 308° |
| 2026-04-22 17:54 | 42.24731 | 26.94276 | 36070 ft | 405 kts | 308° |
| 2026-04-22 17:54 | 42.28483 | 26.88596 | 36071 ft | 405 kts | 308° |
| 2026-04-22 17:55 | 42.31591 | 26.83872 | 36061 ft | 404 kts | 308° |
| 2026-04-22 17:55 | 42.35949 | 26.77245 | 36071 ft | 405 kts | 308° |
| 2026-04-22 17:56 | 42.39693 | 26.71546 | 36067 ft | 405 kts | 308° |
| 2026-04-22 17:56 | 42.43436 | 26.65840 | 36060 ft | 404 kts | 308° |
| 2026-04-22 17:57 | 42.47145 | 26.60171 | 36057 ft | 404 kts | 308° |
| 2026-04-22 17:57 | 42.50874 | 26.54450 | 36053 ft | 404 kts | 308° |
| 2026-04-22 17:58 | 42.54465 | 26.48606 | 36059 ft | 401 kts | 300° |
| 2026-04-22 17:58 | 42.57150 | 26.41992 | 36053 ft | 399 kts | 296° |
| 2026-04-22 17:59 | 42.59759 | 26.35381 | 36049 ft | 399 kts | 296° |
| 2026-04-22 17:59 | 42.62386 | 26.28725 | 36050 ft | 399 kts | 296° |
| 2026-04-22 18:00 | 42.64564 | 26.23195 | 36075 ft | 399 kts | 296° |
| 2026-04-22 18:00 | 42.67184 | 26.16526 | 36069 ft | 400 kts | 296° |
| 2026-04-22 18:01 | 42.69800 | 26.09853 | 36092 ft | 400 kts | 296° |
| 2026-04-22 18:01 | 42.72319 | 26.03101 | 36066 ft | 400 kts | 294° |
| 2026-04-22 18:02 | 42.74680 | 25.96231 | 36063 ft | 401 kts | 293° |
| 2026-04-22 18:02 | 42.77030 | 25.89320 | 36064 ft | 402 kts | 294° |
| 2026-04-22 18:03 | 42.79396 | 25.82479 | 36059 ft | 402 kts | 294° |
| 2026-04-22 18:03 | 42.81788 | 25.75593 | 36057 ft | 402 kts | 294° |
| 2026-04-22 18:04 | 42.84181 | 25.68679 | 36061 ft | 402 kts | 294° |
| 2026-04-22 18:04 | 42.86548 | 25.61820 | 36068 ft | 402 kts | 294° |
| 2026-04-22 18:05 | 42.88924 | 25.54906 | 36064 ft | 402 kts | 294° |
| 2026-04-22 18:05 | 42.91299 | 25.47978 | 36059 ft | 403 kts | 294° |
| 2026-04-22 18:06 | 42.93674 | 25.41054 | 36060 ft | 403 kts | 294° |
| 2026-04-22 18:06 | 42.96041 | 25.34127 | 36061 ft | 403 kts | 293° |
| 2026-04-22 18:07 | 42.98400 | 25.27188 | 36062 ft | 403 kts | 293° |
| 2026-04-22 18:07 | 43.00757 | 25.20243 | 36062 ft | 403 kts | 293° |
| 2026-04-22 18:08 | 43.03096 | 25.13334 | 36062 ft | 403 kts | 293° |
| 2026-04-22 18:08 | 43.05450 | 25.06370 | 36063 ft | 403 kts | 293° |
| 2026-04-22 18:09 | 43.07783 | 24.99440 | 36062 ft | 403 kts | 293° |
| 2026-04-22 18:09 | 43.10126 | 24.92464 | 36059 ft | 403 kts | 293° |
| 2026-04-22 18:10 | 43.12462 | 24.85490 | 36059 ft | 403 kts | 293° |
| 2026-04-22 18:10 | 43.14801 | 24.78515 | 36053 ft | 403 kts | 293° |
| 2026-04-22 18:11 | 43.17120 | 24.71577 | 36057 ft | 403 kts | 293° |
| 2026-04-22 18:11 | 43.19447 | 24.64587 | 36046 ft | 403 kts | 293° |
| 2026-04-22 18:12 | 43.21763 | 24.57590 | 36045 ft | 403 kts | 293° |
| 2026-04-22 18:12 | 43.23687 | 24.51761 | 36043 ft | 403 kts | 293° |
| 2026-04-22 18:13 | 43.26394 | 24.43564 | 36046 ft | 403 kts | 293° |
| 2026-04-22 18:13 | 43.28701 | 24.36572 | 36033 ft | 404 kts | 293° |
| 2026-04-22 18:14 | 43.31018 | 24.29523 | 36024 ft | 405 kts | 293° |
| 2026-04-22 18:14 | 43.33330 | 24.22451 | 36046 ft | 405 kts | 293° |
| 2026-04-22 18:15 | 43.35635 | 24.15413 | 36044 ft | 407 kts | 293° |
| 2026-04-22 18:15 | 43.37953 | 24.08300 | 36039 ft | 408 kts | 293° |
| 2026-04-22 18:16 | 43.40266 | 24.01154 | 36034 ft | 409 kts | 293° |
| 2026-04-22 18:16 | 43.42566 | 23.94047 | 36032 ft | 409 kts | 293° |
| 2026-04-22 18:17 | 43.44888 | 23.86887 | 36042 ft | 410 kts | 293° |
| 2026-04-22 18:17 | 43.47206 | 23.79708 | 36041 ft | 410 kts | 292° |
| 2026-04-22 18:18 | 43.49517 | 23.72518 | 36039 ft | 411 kts | 292° |
| 2026-04-22 18:18 | 43.51815 | 23.65352 | 36045 ft | 411 kts | 292° |
| 2026-04-22 18:19 | 43.54119 | 23.58134 | 36052 ft | 411 kts | 292° |
| 2026-04-22 18:19 | 43.56421 | 23.50902 | 36048 ft | 411 kts | 292° |
| 2026-04-22 18:20 | 43.58711 | 23.43695 | 36046 ft | 412 kts | 292° |
| 2026-04-22 18:20 | 43.61019 | 23.36436 | 36036 ft | 413 kts | 292° |
| 2026-04-22 18:21 | 43.63317 | 23.29161 | 36043 ft | 414 kts | 292° |
| 2026-04-22 18:21 | 43.65615 | 23.21866 | 36046 ft | 414 kts | 292° |
| 2026-04-22 18:22 | 43.67910 | 23.14558 | 36049 ft | 414 kts | 292° |
| 2026-04-22 18:22 | 43.70191 | 23.07274 | 36047 ft | 415 kts | 292° |
| 2026-04-22 18:23 | 43.72483 | 22.99938 | 36046 ft | 415 kts | 292° |
| 2026-04-22 18:23 | 43.74775 | 22.92597 | 36049 ft | 415 kts | 292° |
| 2026-04-22 18:24 | 43.78197 | 22.81610 | 36055 ft | 416 kts | 292° |
| 2026-04-22 18:25 | 43.81826 | 22.70687 | 36052 ft | 417 kts | 305° |
| 2026-04-22 18:25 | 43.85758 | 22.64808 | 36054 ft | 419 kts | 312° |
| 2026-04-22 18:26 | 43.91900 | 22.56114 | 36062 ft | 420 kts | 313° |
| 2026-04-22 18:26 | 43.96002 | 22.50298 | 36055 ft | 422 kts | 313° |
| 2026-04-22 18:27 | 44.00077 | 22.44487 | 36056 ft | 422 kts | 313° |
| 2026-04-22 18:27 | 44.04181 | 22.38618 | 36063 ft | 423 kts | 313° |
| 2026-04-22 18:28 | 44.08282 | 22.32743 | 36066 ft | 423 kts | 313° |
| 2026-04-22 18:28 | 44.12379 | 22.26865 | 36074 ft | 423 kts | 313° |
| 2026-04-22 18:29 | 44.16451 | 22.21000 | 36095 ft | 423 kts | 313° |
| 2026-04-22 18:29 | 44.20548 | 22.15081 | 36081 ft | 424 kts | 313° |
| 2026-04-22 18:30 | 44.26692 | 22.06209 | 36082 ft | 425 kts | 313° |
| 2026-04-22 18:31 | 44.30797 | 22.00267 | 36092 ft | 425 kts | 313° |
| 2026-04-22 18:31 | 44.34907 | 21.94298 | 36091 ft | 426 kts | 313° |
| 2026-04-22 18:32 | 44.39014 | 21.88318 | 36102 ft | 426 kts | 313° |
| 2026-04-22 18:32 | 44.43085 | 21.82374 | 36098 ft | 426 kts | 313° |
| 2026-04-22 18:33 | 44.47186 | 21.76371 | 36105 ft | 426 kts | 313° |
| 2026-04-22 18:33 | 44.51299 | 21.70364 | 36100 ft | 427 kts | 313° |
| 2026-04-22 18:34 | 44.55412 | 21.64334 | 36100 ft | 427 kts | 313° |
| 2026-04-22 18:34 | 44.59508 | 21.58287 | 36103 ft | 428 kts | 313° |
| 2026-04-22 18:35 | 44.63583 | 21.52268 | 36104 ft | 428 kts | 313° |
| 2026-04-22 18:35 | 44.67693 | 21.46196 | 36114 ft | 428 kts | 313° |
| 2026-04-22 18:36 | 44.71806 | 21.40107 | 36114 ft | 428 kts | 313° |
| 2026-04-22 18:36 | 44.75891 | 21.34046 | 36116 ft | 429 kts | 313° |
| 2026-04-22 18:37 | 44.79984 | 21.27952 | 36116 ft | 428 kts | 313° |
| 2026-04-22 18:37 | 44.83389 | 21.22882 | 36124 ft | 428 kts | 313° |
| 2026-04-22 18:38 | 44.88176 | 21.15730 | 36121 ft | 428 kts | 313° |
| 2026-04-22 18:38 | 44.92260 | 21.09605 | 36131 ft | 428 kts | 313° |
| 2026-04-22 18:39 | 44.98359 | 21.00447 | 36131 ft | 428 kts | 314° |
| 2026-04-22 18:39 | 45.02439 | 20.94297 | 36130 ft | 428 kts | 314° |
| 2026-04-22 18:40 | 45.06522 | 20.88147 | 36128 ft | 429 kts | 314° |
| 2026-04-22 18:40 | 45.10583 | 20.82009 | 36134 ft | 429 kts | 314° |
| 2026-04-22 18:41 | 45.14660 | 20.75818 | 36125 ft | 429 kts | 314° |
| 2026-04-22 18:41 | 45.18739 | 20.69616 | 36137 ft | 429 kts | 314° |
| 2026-04-22 18:42 | 45.22809 | 20.63417 | 36132 ft | 429 kts | 314° |
| 2026-04-22 18:42 | 45.26846 | 20.57247 | 36144 ft | 429 kts | 314° |
| 2026-04-22 18:43 | 45.30910 | 20.51031 | 36146 ft | 429 kts | 314° |
| 2026-04-22 18:43 | 45.34979 | 20.44807 | 36139 ft | 429 kts | 314° |
| 2026-04-22 18:44 | 45.39044 | 20.38569 | 36141 ft | 429 kts | 314° |
| 2026-04-22 18:44 | 45.43103 | 20.32312 | 36139 ft | 429 kts | 314° |
| 2026-04-22 18:45 | 45.47127 | 20.26094 | 36151 ft | 429 kts | 314° |
| 2026-04-22 18:45 | 45.51183 | 20.19815 | 36134 ft | 429 kts | 314° |
| 2026-04-22 18:46 | 45.54542 | 20.14595 | 36139 ft | 429 kts | 314° |
| 2026-04-22 18:46 | 45.59245 | 20.07285 | 36141 ft | 429 kts | 314° |
| 2026-04-22 18:47 | 45.62635 | 20.02016 | 36154 ft | 430 kts | 314° |
| 2026-04-22 18:47 | 45.66656 | 19.95750 | 36148 ft | 430 kts | 314° |
| 2026-04-22 18:48 | 45.70702 | 19.89426 | 36137 ft | 430 kts | 314° |
| 2026-04-22 18:48 | 45.74739 | 19.83076 | 36141 ft | 430 kts | 314° |
| 2026-04-22 18:49 | 45.78749 | 19.76756 | 36133 ft | 431 kts | 314° |
| 2026-04-22 18:49 | 45.82787 | 19.70394 | 36147 ft | 431 kts | 314° |
| 2026-04-22 18:50 | 45.86818 | 19.64039 | 36150 ft | 431 kts | 314° |
| 2026-04-22 18:50 | 45.90851 | 19.57661 | 36151 ft | 431 kts | 314° |
| 2026-04-22 18:51 | 45.94864 | 19.51308 | 36144 ft | 432 kts | 314° |
| 2026-04-22 18:51 | 45.98902 | 19.44891 | 36139 ft | 432 kts | 314° |
| 2026-04-22 18:52 | 46.02931 | 19.38448 | 36143 ft | 432 kts | 314° |
| 2026-04-22 18:52 | 46.07304 | 19.32626 | 36143 ft | 430 kts | 323° |
| 2026-04-22 18:53 | 46.12003 | 19.27255 | 36145 ft | 431 kts | 323° |
| 2026-04-22 18:53 | 46.16694 | 19.21859 | 36148 ft | 431 kts | 323° |
| 2026-04-22 18:54 | 46.21356 | 19.16485 | 36129 ft | 431 kts | 323° |
| 2026-04-22 18:54 | 46.26052 | 19.11051 | 36130 ft | 432 kts | 323° |
| 2026-04-22 18:55 | 46.30744 | 19.05617 | 36137 ft | 431 kts | 323° |
| 2026-04-22 18:55 | 46.35407 | 19.00222 | 36141 ft | 431 kts | 323° |
| 2026-04-22 18:56 | 46.40092 | 18.94782 | 36142 ft | 431 kts | 323° |
| 2026-04-22 18:56 | 46.44773 | 18.89310 | 36143 ft | 431 kts | 323° |
| 2026-04-22 18:57 | 46.49452 | 18.83827 | 36125 ft | 432 kts | 323° |
| 2026-04-22 18:57 | 46.54108 | 18.78382 | 36133 ft | 432 kts | 323° |
| 2026-04-22 18:58 | 46.58798 | 18.72892 | 36137 ft | 432 kts | 323° |
| 2026-04-22 18:58 | 46.63487 | 18.67385 | 36141 ft | 432 kts | 323° |
| 2026-04-22 18:59 | 46.68136 | 18.61906 | 36148 ft | 432 kts | 323° |
| 2026-04-22 18:59 | 46.72817 | 18.56370 | 36133 ft | 433 kts | 323° |
| 2026-04-22 19:00 | 46.77503 | 18.50816 | 36141 ft | 433 kts | 323° |
| 2026-04-22 19:00 | 46.82182 | 18.45257 | 36148 ft | 434 kts | 323° |
| 2026-04-22 19:01 | 46.86866 | 18.39679 | 36155 ft | 434 kts | 323° |
| 2026-04-22 19:01 | 46.91520 | 18.34137 | 36154 ft | 434 kts | 323° |
| 2026-04-22 19:02 | 46.96194 | 18.28549 | 36136 ft | 433 kts | 324° |
| 2026-04-22 19:02 | 47.00868 | 18.22953 | 36138 ft | 434 kts | 324° |
| 2026-04-22 19:03 | 47.05545 | 18.17333 | 36147 ft | 435 kts | 323° |
| 2026-04-22 19:03 | 47.10075 | 18.11488 | 36150 ft | 436 kts | 321° |
| 2026-04-22 19:04 | 47.14517 | 18.05387 | 36155 ft | 436 kts | 320° |
| 2026-04-22 19:04 | 47.18969 | 17.99302 | 36144 ft | 436 kts | 321° |
| 2026-04-22 19:05 | 47.23441 | 17.93268 | 36151 ft | 436 kts | 321° |
| 2026-04-22 19:05 | 47.27916 | 17.87235 | 36151 ft | 436 kts | 321° |
| 2026-04-22 19:06 | 47.32373 | 17.81205 | 36163 ft | 437 kts | 321° |
| 2026-04-22 19:07 | 47.39095 | 17.72064 | 36155 ft | 438 kts | 321° |
| 2026-04-22 19:07 | 47.43571 | 17.65959 | 36166 ft | 438 kts | 321° |
| 2026-04-22 19:08 | 47.48023 | 17.59877 | 36175 ft | 438 kts | 321° |
| 2026-04-22 19:08 | 47.52499 | 17.53749 | 36177 ft | 438 kts | 321° |
| 2026-04-22 19:09 | 47.56972 | 17.47611 | 36185 ft | 438 kts | 321° |
| 2026-04-22 19:09 | 47.60685 | 17.42503 | 36182 ft | 438 kts | 321° |
| 2026-04-22 19:10 | 47.65873 | 17.35349 | 36179 ft | 438 kts | 320° |
| 2026-04-22 19:10 | 47.70329 | 17.29172 | 36183 ft | 438 kts | 320° |
| 2026-04-22 19:11 | 47.74783 | 17.22994 | 36196 ft | 438 kts | 320° |
| 2026-04-22 19:11 | 47.79234 | 17.16803 | 36191 ft | 438 kts | 321° |
| 2026-04-22 19:12 | 47.83595 | 17.10510 | 36175 ft | 441 kts | 314° |
| 2026-04-22 19:12 | 47.87512 | 17.03439 | 36183 ft | 443 kts | 313° |
| 2026-04-22 19:13 | 47.91438 | 16.96347 | 36187 ft | 443 kts | 313° |
| 2026-04-22 19:13 | 47.95356 | 16.89228 | 36193 ft | 443 kts | 313° |
| 2026-04-22 19:14 | 47.99237 | 16.82148 | 36217 ft | 443 kts | 313° |
| 2026-04-22 19:14 | 48.03146 | 16.75012 | 36222 ft | 443 kts | 313° |
| 2026-04-22 19:15 | 48.06390 | 16.69070 | 36220 ft | 443 kts | 313° |
| 2026-04-22 19:15 | 48.10916 | 16.60752 | 36207 ft | 443 kts | 313° |
| 2026-04-22 19:16 | 48.14823 | 16.53589 | 36204 ft | 444 kts | 313° |
| 2026-04-22 19:16 | 48.18723 | 16.46390 | 36204 ft | 445 kts | 313° |
| 2026-04-22 19:17 | 48.22615 | 16.39169 | 36201 ft | 445 kts | 313° |
| 2026-04-22 19:17 | 48.26516 | 16.31930 | 36211 ft | 446 kts | 313° |
| 2026-04-22 19:18 | 48.30408 | 16.24679 | 36213 ft | 446 kts | 313° |
| 2026-04-22 19:18 | 48.34275 | 16.17453 | 36230 ft | 446 kts | 313° |
| 2026-04-22 19:19 | 48.38165 | 16.10180 | 36214 ft | 446 kts | 313° |
| 2026-04-22 19:19 | 48.42059 | 16.02877 | 36214 ft | 447 kts | 313° |
| 2026-04-22 19:20 | 48.45953 | 15.95560 | 36218 ft | 447 kts | 313° |
| 2026-04-22 19:20 | 48.49821 | 15.88262 | 36231 ft | 448 kts | 313° |
| 2026-04-22 19:21 | 48.53710 | 15.80897 | 36236 ft | 448 kts | 313° |
| 2026-04-22 19:21 | 48.57598 | 15.73521 | 36234 ft | 448 kts | 312° |
| 2026-04-22 19:22 | 48.61477 | 15.66130 | 36250 ft | 448 kts | 312° |
| 2026-04-22 19:22 | 48.65326 | 15.58781 | 36259 ft | 448 kts | 312° |
| 2026-04-22 19:23 | 48.69200 | 15.51386 | 36262 ft | 448 kts | 312° |
| 2026-04-22 19:23 | 48.73072 | 15.43970 | 36257 ft | 449 kts | 313° |
| 2026-04-22 19:24 | 48.76940 | 15.36547 | 36235 ft | 449 kts | 312° |
| 2026-04-22 19:24 | 48.80808 | 15.29084 | 36253 ft | 450 kts | 312° |
| 2026-04-22 19:25 | 48.84672 | 15.21603 | 36252 ft | 450 kts | 312° |
| 2026-04-22 19:25 | 48.88509 | 15.14155 | 36265 ft | 450 kts | 312° |
| 2026-04-22 19:26 | 48.92342 | 15.06608 | 36258 ft | 451 kts | 311° |
| 2026-04-22 19:26 | 48.96072 | 14.98929 | 36271 ft | 451 kts | 310° |
| 2026-04-22 19:27 | 48.99773 | 14.91217 | 36275 ft | 450 kts | 310° |
| 2026-04-22 19:27 | 49.03492 | 14.83518 | 36258 ft | 451 kts | 311° |
| 2026-04-22 19:28 | 49.07210 | 14.75858 | 36263 ft | 452 kts | 311° |
| 2026-04-22 19:28 | 49.10949 | 14.68129 | 36251 ft | 453 kts | 310° |
| 2026-04-22 19:29 | 49.14683 | 14.60363 | 36264 ft | 453 kts | 310° |
| 2026-04-22 19:29 | 49.18394 | 14.52637 | 36273 ft | 453 kts | 310° |
| 2026-04-22 19:30 | 49.20890 | 14.47429 | 36282 ft | 453 kts | 310° |
| 2026-04-22 19:30 | 49.25842 | 14.37051 | 36290 ft | 453 kts | 310° |
| 2026-04-22 19:31 | 49.29560 | 14.29236 | 36293 ft | 453 kts | 310° |
| 2026-04-22 19:31 | 49.33251 | 14.21453 | 36283 ft | 454 kts | 310° |
| 2026-04-22 19:32 | 49.36336 | 14.14925 | 36287 ft | 454 kts | 310° |
| 2026-04-22 19:32 | 49.40654 | 14.05778 | 36290 ft | 455 kts | 310° |
| 2026-04-22 19:33 | 49.43764 | 13.99173 | 36290 ft | 455 kts | 310° |
| 2026-04-22 19:33 | 49.47442 | 13.91330 | 36284 ft | 455 kts | 310° |
| 2026-04-22 19:34 | 49.51140 | 13.83414 | 36292 ft | 454 kts | 310° |
| 2026-04-22 19:34 | 49.54835 | 13.75503 | 36295 ft | 454 kts | 310° |
| 2026-04-22 19:35 | 49.58503 | 13.67632 | 36299 ft | 455 kts | 310° |
| 2026-04-22 19:35 | 49.62180 | 13.59697 | 36285 ft | 455 kts | 309° |
| 2026-04-22 19:36 | 49.65853 | 13.51726 | 36278 ft | 455 kts | 309° |
| 2026-04-22 19:36 | 49.69529 | 13.43748 | 36282 ft | 456 kts | 309° |
| 2026-04-22 19:37 | 49.73177 | 13.35801 | 36287 ft | 456 kts | 309° |
| 2026-04-22 19:37 | 49.76852 | 13.27782 | 36291 ft | 456 kts | 309° |
| 2026-04-22 19:38 | 49.80529 | 13.19739 | 36294 ft | 457 kts | 309° |
| 2026-04-22 19:38 | 49.84171 | 13.11747 | 36308 ft | 457 kts | 309° |
| 2026-04-22 19:39 | 49.87470 | 13.03323 | 36310 ft | 463 kts | 295° |
| 2026-04-22 19:39 | 49.89787 | 12.93990 | 36306 ft | 464 kts | 294° |
| 2026-04-22 19:40 | 49.92065 | 12.84627 | 36304 ft | 464 kts | 294° |
| 2026-04-22 19:40 | 49.94341 | 12.75230 | 36293 ft | 464 kts | 294° |
| 2026-04-22 19:41 | 49.96616 | 12.65815 | 36284 ft | 465 kts | 294° |
| 2026-04-22 19:41 | 49.98889 | 12.56446 | 36299 ft | 467 kts | 294° |
| 2026-04-22 19:42 | 50.01173 | 12.46970 | 36311 ft | 468 kts | 294° |
| 2026-04-22 19:42 | 50.03443 | 12.37489 | 36313 ft | 467 kts | 294° |
| 2026-04-22 19:43 | 50.06829 | 12.23247 | 36325 ft | 467 kts | 293° |
| 2026-04-22 19:43 | 50.09063 | 12.13813 | 36332 ft | 467 kts | 293° |
| 2026-04-22 19:44 | 50.11316 | 12.04307 | 36338 ft | 467 kts | 293° |
| 2026-04-22 19:44 | 50.13555 | 11.94792 | 36317 ft | 467 kts | 293° |
| 2026-04-22 19:45 | 50.15779 | 11.85286 | 36334 ft | 466 kts | 293° |
| 2026-04-22 19:45 | 50.17986 | 11.75826 | 36332 ft | 466 kts | 293° |
| 2026-04-22 19:46 | 50.20185 | 11.66304 | 36333 ft | 466 kts | 292° |
| 2026-04-22 19:46 | 50.22374 | 11.56781 | 36338 ft | 466 kts | 292° |
| 2026-04-22 19:47 | 50.24566 | 11.47258 | 36335 ft | 465 kts | 292° |
| 2026-04-22 19:47 | 50.26739 | 11.37793 | 36343 ft | 465 kts | 292° |
| 2026-04-22 19:48 | 50.28913 | 11.28259 | 36351 ft | 465 kts | 292° |
| 2026-04-22 19:48 | 50.31073 | 11.18721 | 36351 ft | 464 kts | 292° |
| 2026-04-22 19:49 | 50.33230 | 11.09172 | 36314 ft | 463 kts | 292° |
| 2026-04-22 19:49 | 50.34283 | 11.04489 | 35813 ft | 461 kts | 292° |
| 2026-04-22 19:49 | 50.35347 | 10.99745 | 35250 ft | 460 kts | 292° |
| 2026-04-22 19:50 | 50.36405 | 10.95021 | 34706 ft | 458 kts | 292° |
| 2026-04-22 19:50 | 50.37458 | 10.90310 | 34096 ft | 458 kts | 291° |
| 2026-04-22 19:50 | 50.38508 | 10.85595 | 33505 ft | 457 kts | 291° |
| 2026-04-22 19:50 | 50.39551 | 10.80899 | 32964 ft | 454 kts | 291° |
| 2026-04-22 19:51 | 50.40572 | 10.76299 | 32474 ft | 451 kts | 291° |
| 2026-04-22 19:51 | 50.41599 | 10.71664 | 31972 ft | 448 kts | 291° |
| 2026-04-22 19:51 | 50.42619 | 10.67054 | 31500 ft | 445 kts | 291° |
| 2026-04-22 19:51 | 50.43625 | 10.62495 | 31083 ft | 440 kts | 291° |
| 2026-04-22 19:52 | 50.44620 | 10.57965 | 30631 ft | 437 kts | 290° |
| 2026-04-22 19:52 | 50.45607 | 10.53456 | 30112 ft | 434 kts | 290° |
| 2026-04-22 19:52 | 50.46583 | 10.48985 | 29609 ft | 431 kts | 290° |
| 2026-04-22 19:52 | 50.47339 | 10.44512 | 29129 ft | 427 kts | 283° |
| 2026-04-22 19:53 | 50.47978 | 10.39974 | 28649 ft | 424 kts | 283° |
| 2026-04-22 19:53 | 50.48606 | 10.35475 | 28178 ft | 420 kts | 283° |
| 2026-04-22 19:53 | 50.49224 | 10.31014 | 27718 ft | 416 kts | 283° |
| 2026-04-22 19:53 | 50.49836 | 10.26591 | 27277 ft | 412 kts | 284° |
| 2026-04-22 19:54 | 50.50445 | 10.22215 | 26848 ft | 407 kts | 284° |
| 2026-04-22 19:54 | 50.51043 | 10.17885 | 26438 ft | 403 kts | 284° |
| 2026-04-22 19:54 | 50.51633 | 10.13595 | 26008 ft | 399 kts | 284° |
| 2026-04-22 19:54 | 50.52209 | 10.09407 | 25603 ft | 395 kts | 284° |
| 2026-04-22 19:55 | 50.52789 | 10.05200 | 25190 ft | 392 kts | 284° |
| 2026-04-22 19:55 | 50.53361 | 10.01026 | 24778 ft | 388 kts | 284° |
| 2026-04-22 19:55 | 50.53926 | 9.96895 | 24373 ft | 385 kts | 284° |
| 2026-04-22 19:55 | 50.54483 | 9.92794 | 23981 ft | 382 kts | 284° |
| 2026-04-22 19:56 | 50.55034 | 9.88723 | 23529 ft | 379 kts | 284° |
| 2026-04-22 19:56 | 50.55581 | 9.84672 | 23073 ft | 376 kts | 284° |
| 2026-04-22 19:56 | 50.56120 | 9.80667 | 22633 ft | 373 kts | 284° |
| 2026-04-22 19:56 | 50.56648 | 9.76741 | 22327 ft | 369 kts | 284° |
| 2026-04-22 19:57 | 50.57182 | 9.72790 | 22338 ft | 369 kts | 284° |
| 2026-04-22 19:57 | 50.57714 | 9.68828 | 22333 ft | 370 kts | 284° |
| 2026-04-22 19:57 | 50.58238 | 9.64865 | 22333 ft | 370 kts | 284° |
| 2026-04-22 19:57 | 50.58761 | 9.60890 | 22334 ft | 370 kts | 284° |
| 2026-04-22 19:58 | 50.59246 | 9.56903 | 22331 ft | 371 kts | 280° |
| 2026-04-22 19:58 | 50.59511 | 9.52861 | 22335 ft | 372 kts | 277° |
| 2026-04-22 19:58 | 50.59749 | 9.48854 | 22332 ft | 372 kts | 277° |
| 2026-04-22 19:58 | 50.59990 | 9.44797 | 22331 ft | 372 kts | 277° |
| 2026-04-22 19:59 | 50.60231 | 9.40740 | 22331 ft | 372 kts | 277° |
| 2026-04-22 20:00 | 50.61635 | 9.16475 | 22336 ft | 371 kts | 277° |
| 2026-04-22 20:00 | 50.61864 | 9.12435 | 22336 ft | 371 kts | 277° |
| 2026-04-22 20:01 | 50.62093 | 9.08385 | 22336 ft | 371 kts | 277° |
| 2026-04-22 20:01 | 50.62321 | 9.04331 | 22333 ft | 371 kts | 277° |
| 2026-04-22 20:01 | 50.62550 | 9.00275 | 22334 ft | 371 kts | 277° |
| 2026-04-22 20:01 | 50.62773 | 8.96277 | 22339 ft | 371 kts | 277° |
| 2026-04-22 20:02 | 50.62997 | 8.92221 | 22052 ft | 370 kts | 277° |
| 2026-04-22 20:02 | 50.63215 | 8.88196 | 21586 ft | 367 kts | 277° |
| 2026-04-22 20:02 | 50.63430 | 8.84210 | 21140 ft | 364 kts | 277° |
| 2026-04-22 20:02 | 50.63778 | 8.80279 | 20708 ft | 359 kts | 285° |
| 2026-04-22 20:03 | 50.64317 | 8.76449 | 20284 ft | 357 kts | 285° |
| 2026-04-22 20:03 | 50.64842 | 8.72685 | 19866 ft | 354 kts | 285° |
| 2026-04-22 20:03 | 50.65367 | 8.68893 | 19452 ft | 354 kts | 285° |
| 2026-04-22 20:03 | 50.65890 | 8.65104 | 19040 ft | 352 kts | 285° |
| 2026-04-22 20:04 | 50.66408 | 8.61330 | 18627 ft | 351 kts | 285° |
| 2026-04-22 20:04 | 50.66919 | 8.57561 | 18173 ft | 350 kts | 285° |
| 2026-04-22 20:04 | 50.67428 | 8.53804 | 17710 ft | 349 kts | 285° |
| 2026-04-22 20:04 | 50.67938 | 8.50075 | 17253 ft | 348 kts | 285° |
| 2026-04-22 20:05 | 50.68445 | 8.46385 | 16819 ft | 348 kts | 285° |
| 2026-04-22 20:05 | 50.68954 | 8.42652 | 16375 ft | 347 kts | 284° |
| 2026-04-22 20:05 | 50.69456 | 8.38930 | 15940 ft | 347 kts | 284° |
| 2026-04-22 20:05 | 50.69952 | 8.35216 | 15513 ft | 345 kts | 284° |
| 2026-04-22 20:06 | 50.70447 | 8.31508 | 15088 ft | 345 kts | 284° |
| 2026-04-22 20:06 | 50.70942 | 8.27810 | 14669 ft | 342 kts | 284° |
| 2026-04-22 20:06 | 50.71420 | 8.24240 | 14258 ft | 330 kts | 284° |
| 2026-04-22 20:06 | 50.71891 | 8.20723 | 13815 ft | 326 kts | 284° |
| 2026-04-22 20:07 | 50.72357 | 8.17211 | 13361 ft | 327 kts | 284° |
| 2026-04-22 20:07 | 50.72824 | 8.13691 | 12912 ft | 327 kts | 284° |
| 2026-04-22 20:07 | 50.73293 | 8.10169 | 12459 ft | 327 kts | 284° |
| 2026-04-22 20:07 | 50.73759 | 8.06646 | 12030 ft | 327 kts | 284° |
| 2026-04-22 20:08 | 50.74221 | 8.03128 | 11596 ft | 327 kts | 284° |
| 2026-04-22 20:08 | 50.74681 | 7.99635 | 11352 ft | 320 kts | 284° |
| 2026-04-22 20:08 | 50.75142 | 7.96264 | 11344 ft | 310 kts | 288° |
| 2026-04-22 20:08 | 50.75898 | 7.93149 | 11354 ft | 306 kts | 300° |
| 2026-04-22 20:09 | 50.77031 | 7.90320 | 11355 ft | 303 kts | 308° |
| 2026-04-22 20:09 | 50.78258 | 7.87607 | 11356 ft | 303 kts | 308° |
| 2026-04-22 20:09 | 50.79486 | 7.84886 | 11355 ft | 303 kts | 308° |
| 2026-04-22 20:09 | 50.80710 | 7.82171 | 11355 ft | 303 kts | 308° |
| 2026-04-22 20:10 | 50.81938 | 7.79448 | 11355 ft | 303 kts | 308° |
| 2026-04-22 20:10 | 50.83161 | 7.76734 | 11354 ft | 303 kts | 308° |
| 2026-04-22 20:10 | 50.84366 | 7.74049 | 11355 ft | 303 kts | 308° |
| 2026-04-22 20:10 | 50.85586 | 7.71324 | 11355 ft | 303 kts | 308° |
| 2026-04-22 20:11 | 50.86808 | 7.68591 | 11356 ft | 303 kts | 308° |
| 2026-04-22 20:11 | 50.88026 | 7.65864 | 11355 ft | 303 kts | 308° |
| 2026-04-22 20:11 | 50.89244 | 7.63137 | 11356 ft | 303 kts | 308° |
| 2026-04-22 20:11 | 50.90464 | 7.60405 | 11355 ft | 303 kts | 308° |
| 2026-04-22 20:12 | 50.91681 | 7.57675 | 11357 ft | 303 kts | 308° |
| 2026-04-22 20:12 | 50.92865 | 7.55014 | 11199 ft | 296 kts | 308° |
| 2026-04-22 20:12 | 50.93665 | 7.53214 | 10980 ft | 294 kts | 308° |
| 2026-04-22 20:12 | 50.95217 | 7.49725 | 10405 ft | 290 kts | 308° |
| 2026-04-22 20:13 | 50.96315 | 7.47049 | 9766 ft | 292 kts | 298° |
| 2026-04-22 20:13 | 50.97111 | 7.44087 | 9414 ft | 291 kts | 294° |
| 2026-04-22 20:13 | 50.97851 | 7.41099 | 9066 ft | 289 kts | 293° |
| 2026-04-22 20:13 | 50.98584 | 7.38127 | 8707 ft | 288 kts | 293° |
| 2026-04-22 20:14 | 50.99315 | 7.35177 | 8330 ft | 286 kts | 293° |
| 2026-04-22 20:14 | 51.00038 | 7.32268 | 7803 ft | 282 kts | 293° |
| 2026-04-22 20:14 | 51.00752 | 7.29415 | 7193 ft | 280 kts | 293° |
| 2026-04-22 20:14 | 51.01472 | 7.26559 | 6572 ft | 277 kts | 293° |
| 2026-04-22 20:15 | 51.02192 | 7.23731 | 5947 ft | 274 kts | 293° |
| 2026-04-22 20:15 | 51.02907 | 7.20935 | 5322 ft | 271 kts | 293° |
| 2026-04-22 20:15 | 51.03622 | 7.18147 | 4878 ft | 271 kts | 293° |
| 2026-04-22 20:15 | 51.04270 | 7.15335 | 4452 ft | 271 kts | 282° |
| 2026-04-22 20:16 | 51.04487 | 7.12364 | 4030 ft | 270 kts | 274° |
| 2026-04-22 20:16 | 51.04607 | 7.09433 | 3633 ft | 269 kts | 273° |
| 2026-04-22 20:16 | 51.04726 | 7.06497 | 3380 ft | 261 kts | 274° |
| 2026-04-22 20:16 | 51.04840 | 7.03680 | 3248 ft | 249 kts | 273° |
| 2026-04-22 20:17 | 51.04949 | 7.00977 | 3123 ft | 240 kts | 274° |
| 2026-04-22 20:17 | 51.05051 | 6.98327 | 3019 ft | 239 kts | 273° |
| 2026-04-22 20:17 | 51.05063 | 6.95698 | 3002 ft | 238 kts | 258° |
| 2026-04-22 20:17 | 51.04339 | 6.93400 | 3010 ft | 234 kts | 224° |
| 2026-04-22 20:18 | 51.02945 | 6.92247 | 3017 ft | 227 kts | 182° |
| 2026-04-22 20:18 | 51.01464 | 6.92827 | 3015 ft | 220 kts | 141° |
| 2026-04-22 20:18 | 51.00477 | 6.94616 | 3015 ft | 220 kts | 126° |
| 2026-04-22 20:18 | 50.99420 | 6.96376 | 3011 ft | 221 kts | 135° |
| 2026-04-22 20:19 | 50.98286 | 6.98013 | 2940 ft | 218 kts | 136° |
| 2026-04-22 20:19 | 50.97172 | 6.99625 | 2700 ft | 215 kts | 135° |
| 2026-04-22 20:19 | 50.96448 | 7.00678 | 2515 ft | 209 kts | 135° |
| 2026-04-22 20:19 | 50.95401 | 7.02203 | 2243 ft | 199 kts | 134° |
| 2026-04-22 20:20 | 50.94405 | 7.03653 | 1977 ft | 190 kts | 133° |
| 2026-04-22 20:20 | 50.93460 | 7.05029 | 1741 ft | 177 kts | 133° |
| 2026-04-22 20:20 | 50.92591 | 7.06293 | 1493 ft | 162 kts | 133° |
| 2026-04-22 20:20 | 50.91811 | 7.07426 | 1283 ft | 145 kts | 135° |
| 2026-04-22 20:21 | 50.91075 | 7.08500 | 1084 ft | 142 kts | 134° |
| 2026-04-22 20:21 | 50.90346 | 7.09560 | 894 ft | 141 kts | 134° |
| 2026-04-22 20:21 | 50.89632 | 7.10600 | 701 ft | 141 kts | 134° |
| 2026-04-22 20:21 | 50.88908 | 7.11651 | 522 ft | 141 kts | 134° |
| 2026-04-22 20:22 | 50.88190 | 7.12693 | 325 ft | 139 kts | 134° |
| 2026-04-22 20:22 | 50.87492 | 7.13705 | 243 ft | 125 kts | 135° |
| 2026-04-22 20:22 | 50.86972 | 7.14467 | 257 ft | 77 kts | 138° |
| 2026-04-22 20:22 | 50.86665 | 7.14911 | 272 ft | 51 kts | 137° |
| 2026-04-22 20:23 | 50.86439 | 7.15221 | 282 ft | 38 kts | 150° |
| 2026-04-22 20:23 | 50.86252 | 7.15322 | 290 ft | 22 kts | 167° |
| 2026-04-22 20:23 | 50.86125 | 7.15355 | 290 ft | 14 kts | 187° |
| 2026-04-22 20:23 | 50.86056 | 7.15280 | 293 ft | 11 kts | 241° |
| 2026-04-22 20:24 | 50.86048 | 7.15160 | 293 ft | 11 kts | 284° |
| 2026-04-22 20:24 | 50.86100 | 7.15055 | 287 ft | 14 kts | 319° |
| 2026-04-22 20:24 | 50.86178 | 7.14942 | 285 ft | 16 kts | 318° |
| 2026-04-22 20:24 | 50.86272 | 7.14806 | 279 ft | 21 kts | 317° |
| 2026-04-22 20:25 | 50.86391 | 7.14633 | 273 ft | 26 kts | 317° |
| 2026-04-22 20:25 | 50.86516 | 7.14452 | 265 ft | 21 kts | 317° |
| 2026-04-22 20:25 | 50.86628 | 7.14288 | 261 ft | 19 kts | 317° |
| 2026-04-22 20:25 | 50.86717 | 7.14161 | 257 ft | 12 kts | 319° |
| 2026-04-22 20:26 | 50.86778 | 7.14121 | 255 ft | 8 kts | 339° |
| 2026-04-22 20:26 | 50.86818 | 7.14076 | 255 ft | 6 kts | 319° |
| 2026-04-22 20:26 | 50.86857 | 7.14021 | 255 ft | 10 kts | 318° |
| 2026-04-22 20:26 | 50.86913 | 7.13937 | 251 ft | 13 kts | 318° |
| 2026-04-22 20:27 | 50.86991 | 7.13825 | 244 ft | 17 kts | 317° |
| 2026-04-22 20:27 | 50.87090 | 7.13683 | 240 ft | 21 kts | 317° |
| 2026-04-22 20:27 | 50.87200 | 7.13522 | 240 ft | 23 kts | 317° |
| 2026-04-22 20:27 | 50.87328 | 7.13339 | 232 ft | 26 kts | 316° |
| 2026-04-22 20:28 | 50.87429 | 7.13191 | 232 ft | 17 kts | 317° |
| 2026-04-22 20:28 | 50.87509 | 7.13076 | 232 ft | 14 kts | 317° |
| 2026-04-22 20:28 | 50.87568 | 7.12989 | 232 ft | 10 kts | 317° |
| 2026-04-22 20:28 | 50.87615 | 7.12922 | 232 ft | 8 kts | 317° |
| 2026-04-22 20:29 | 50.87633 | 7.12895 | 232 ft | 2 kts | 317° |
| 2026-04-22 20:29 | 50.87651 | 7.12868 | 232 ft | 4 kts | 317° |
| 2026-04-22 20:29 | 50.87674 | 7.12836 | 232 ft | 4 kts | 318° |
| 2026-04-22 20:29 | 50.87692 | 7.12810 | 232 ft | 3 kts | 318° |
| 2026-04-22 20:30 | 50.87710 | 7.12784 | 232 ft | 4 kts | 318° |
| 2026-04-22 20:30 | 50.87727 | 7.12760 | 232 ft | 3 kts | 317° |
| 2026-04-22 20:30 | 50.87739 | 7.12742 | 232 ft | 2 kts | 317° |
| 2026-04-22 20:30 | 50.87755 | 7.12720 | 232 ft | 3 kts | 317° |
| 2026-04-22 20:31 | 50.87775 | 7.12690 | 232 ft | 0 kts | 317° |
| 2026-04-22 20:31 | 50.87778 | 7.12687 | 232 ft | 4 kts | 317° |
| 2026-04-22 20:32 | 50.87807 | 7.12644 | 232 ft | 7 kts | 321° |
| 2026-04-22 20:32 | 50.87857 | 7.12612 | 233 ft | 8 kts | 351° |
| 2026-04-22 20:32 | 50.87910 | 7.12611 | 232 ft | 8 kts | 348° |
| 2026-04-22 20:32 | 50.87962 | 7.12552 | 232 ft | 9 kts | 318° |
| 2026-04-22 20:33 | 50.88013 | 7.12478 | 232 ft | 9 kts | 317° |
| 2026-04-22 20:33 | 50.88058 | 7.12408 | 232 ft | 9 kts | 313° |
| 2026-04-22 20:33 | 50.88096 | 7.12318 | 232 ft | 9 kts | 288° |
| 2026-04-22 20:33 | 50.88122 | 7.12221 | 232 ft | 10 kts | 303° |
| 2026-04-22 20:34 | 50.88159 | 7.12141 | 234 ft | 8 kts | 307° |
| 2026-04-22 20:34 | 50.88191 | 7.12073 | 232 ft | 7 kts | 306° |
| 2026-04-22 20:34 | 50.88225 | 7.11997 | 232 ft | 9 kts | 305° |
| 2026-04-22 20:34 | 50.88256 | 7.11928 | 234 ft | 4 kts | 306° |
| 2026-04-22 20:35 | 50.88257 | 7.11903 | 232 ft | 2 kts | 252° |
| 2026-04-22 20:35 | 50.88244 | 7.11883 | 232 ft | 3 kts | 220° |
| 2026-04-22 20:35 | 50.88228 | 7.11865 | 232 ft | 2 kts | 216° |
| 2026-04-22 20:35 | 50.88222 | 7.11857 | 232 ft | 0 kts | 216° |